Nearby METAR Reports

 

KSJC - San Jose, California, USA
Distance from station: NO 14km
Uppdaterad: 26/06/2022 06:53
Klart
Klart
 Vind frn VNV
Vind: VNV 11 km/h
Temperatur: 18°C
Daggpunkt: 13°C
Luftfuktighet: 73%
Barometer: 1014.2 hPa
Clouds: Klart
Visibility: 16 km
2022/06/26 04:53 KSJC 260453Z 29006KT 10SM CLR 18/13 A2995 RMK AO2 SLP143 T01830133
KNUQ - Moffett Nas/Mtn, California, USA
Distance from station: N 14km
Uppdaterad: 26/06/2022 07:10

 Vind frn calm
Vind: Vindstilla
Temperatur: 17°C
Daggpunkt: 13°C
Luftfuktighet: 77%
Barometer: 1014.6 hPa
Visibility: 16 km
2022/06/26 05:10 KNUQ 260510Z AUTO 00000KT 10SM 17/13 A2996 RMK AO2
 
KPAO - Palo Alto, California, USA
Distance from station: NNV 23km
Uppdaterad: 26/06/2022 05:47
NOT Current
Klart
Klart
 Vind frn NNV
Vind: NNV 17 km/h
Temperatur: 18°C
Daggpunkt: 13°C
Luftfuktighet: 73%
Barometer: 1013.9 hPa
Clouds: Klart
Visibility: 16 km
2022/06/26 03:47 KPAO 260347Z 33009KT 10SM SKC 18/13 A2994 RMK LAST
KRHV - San Jose/Reid, California, USA
Distance from station: ONO 19km
Uppdaterad: 26/06/2022 06:55
Klart
Klart
 Vind frn VNV
Vind: VNV 9 km/h
Temperatur: 19°C
Daggpunkt: 13°C
Luftfuktighet: 68%
Barometer: 1014.6 hPa
Clouds: Klart
Visibility: 16 km
2022/06/26 04:55 KRHV 260455Z 30005KT 10SM SKC 19/13 A2996 RMK LAST
 
KOAK - Oakland, California, USA
Distance from station: NNV 50km
Uppdaterad: 26/06/2022 06:53
Few Clouds
Few Clouds
 Vind frn NV
Vind: NV 17 km/h
Temperatur: 14°C
Daggpunkt: 12°C
Luftfuktighet: 88%
Barometer: 1014.6 hPa
Clouds: Few Clouds
Visibility: 16 km
Cloud details: Few Clouds 91 m
Few Clouds 335 m
2022/06/26 04:53 KOAK 260453Z 32009KT 10SM FEW003 FEW011 14/12 A2996 RMK AO2 SLP146 T01390122
KSQL - San Carlos Airpo, California, USA
Distance from station: NV 34km
Uppdaterad: 26/06/2022 07:15
Klart
Klart
 Vind frn calm
Vind: Vindstilla
Temperatur: 15°C
Daggpunkt: 13°C
Luftfuktighet: 88%
Barometer: 1014.9 hPa
Clouds: Klart
Visibility: 16 km
2022/06/26 05:15 KSQL 260515Z AUTO 00000KT 10SM CLR 15/13 A2997 RMK AO2
 
KSFO - San Francisco, California, USA
Distance from station: NV 49km
Uppdaterad: 26/06/2022 06:56
Few Clouds
Few Clouds
 Vind frn VNV
Vind: VNV 28 km/h
Temperatur: 14°C
Daggpunkt: 12°C
Luftfuktighet: 88%
Barometer: 1014.2 hPa
Clouds: Few Clouds
Visibility: 16 km
Cloud details: Few Clouds 61 m
2022/06/26 04:56 KSFO 260456Z 30015KT 10SM FEW002 14/12 A2995 RMK AO2 SLP142 T01390117
KE16 - San Martin, California, USA
Distance from station: OSO 43km
Uppdaterad: 26/06/2022 07:15
Delvis molnigt
Delvis molnigt
 Vind frn S
Vind: S 6 km/h
Temperatur: 16°C
Daggpunkt: 10°C
Luftfuktighet: 68%
Barometer: 1015.6 hPa
Clouds: Delvis molnigt
Visibility: 16 km
Cloud details: Few Clouds 549 m
Delvis molnigt 762 m
2022/06/26 05:15 KE16 260515Z AUTO 17003KT 10SM FEW018 SCT025 16/10 A2999 RMK AO2
 
KWVI - Watsonville, California, USA
Distance from station: SSO 44km
Uppdaterad: 26/06/2022 07:01
Genommulet
Genommulet
 Vind frn SSV
Vind: SSV 6 km/h
Temperatur: 13°C
Daggpunkt: 12°C
Luftfuktighet: 94%
Barometer: 1015.6 hPa
Clouds: Genommulet
Visibility: 11 km
Cloud details: Genommulet 152 m
2022/06/26 05:01 KWVI 260501Z AUTO 21003KT 7SM OVC005 13/12 A2999 RMK AO2 T01280117
KHAF - Half Moon Bay, California, USA
Distance from station: VNV 50km
Uppdaterad: 26/06/2022 07:15
Mist, Genommulet
Mist, Genommulet
 Vind frn V
Vind: V 7 km/h
Temperatur: 13°C
Daggpunkt: 13°C
Luftfuktighet: 100%
Barometer: 1015.6 hPa
Summering: Mist
Clouds: Genommulet
Visibility: 5 km
Cloud details: Genommulet 91 m
2022/06/26 05:15 KHAF 260515Z AUTO 26004KT 3SM BR OVC003 13/13 A2999 RMK AO2
 
KHWD - Hayward, California, USA
Distance from station: N 44km
Uppdaterad: 26/06/2022 06:54
Klart
Klart
 Vind frn VNV
Vind: VNV 15 km/h
Temperatur: 14°C
Daggpunkt: 12°C
Luftfuktighet: 88%
Barometer: 1014.2 hPa
Clouds: Klart
Visibility: 16 km
2022/06/26 04:54 KHWD 260454Z AUTO 30008KT 10SM CLR 14/12 A2995 RMK AO2 SLP151 T01440117
KLVK - Livermore, California, USA
Distance from station: NNO 51km
Uppdaterad: 26/06/2022 06:53
Klart
Klart
 Vind frn NV
Vind: NV 11 km/h
Temperatur: 22°C
Daggpunkt: 7°C
Luftfuktighet: 38%
Barometer: 1013.2 hPa
Clouds: Klart
Visibility: 16 km
2022/06/26 04:53 KLVK 260453Z AUTO 31006KT 10SM CLR 22/07 A2992 RMK AO2 SLP128 T02220072